Time;durP1;ratioP1;P1;durP2;ratioP2;P2;SDS_P1;SDS_P2;PMS_P1;PMS_P2;Temp;Humidity;BMP_temperature;BMP_pressure;BME280_temperature;BME280_humidity;BME280_pressure;Samples;Min_cycle;Max_cycle;Signal;HPM_P1;HPM_P2
2021/11/15 07:20:57;;;;;;;44.63;32.10;;;;;;;5.46;88.93;99448.08;1824514;78;21529;-55
2021/11/15 07:23:24;;;;;;;44.67;29.05;;;;;;;5.53;88.85;99449.60;1820386;78;21728;-61
2021/11/15 07:25:51;;;;;;;49.10;27.37;;;;;;;5.60;88.75;99461.51;1794125;80;21423;-58
2021/11/15 07:28:17;;;;;;;41.10;27.05;;;;;;;5.70;88.73;99457.00;1795164;79;20943;-60
2021/11/15 07:30:45;;;;;;;39.15;26.02;;;;;;;5.79;88.66;99453.00;1799200;78;20987;-60
2021/11/15 07:33:13;;;;;;;40.50;26.50;;;;;;;5.93;88.52;99462.45;1825950;78;21506;-60
2021/11/15 07:35:40;;;;;;;44.88;28.57;;;;;;;6.07;88.15;99470.55;1824717;78;21118;-60
2021/11/15 07:38:07;;;;;;;36.50;26.75;;;;;;;6.15;87.76;99473.70;1827437;78;21363;-62
2021/11/15 07:40:34;;;;;;;43.02;27.55;;;;;;;6.24;87.55;99466.74;1824944;78;20908;-59
2021/11/15 07:43:01;;;;;;;45.23;27.62;;;;;;;6.31;87.35;99473.59;1826834;77;20919;-58
2021/11/15 07:45:29;;;;;;;38.53;28.47;;;;;;;6.38;87.10;99472.98;1827240;77;20943;-59
2021/11/15 07:47:56;;;;;;;39.83;28.95;;;;;;;6.44;86.88;99474.72;1837265;77;21040;-63
2021/11/15 07:50:43;;;;;;;40.43;28.95;;;;;;;6.50;86.69;99476.46;1820642;77;21431;-58
2021/11/15 07:53:18;;;;;;;45.70;30.12;;;;;;;6.57;86.50;99471.84;1820163;78;20896;-64
2021/11/15 07:55:45;;;;;;;40.52;30.60;;;;;;;6.66;86.23;99474.49;1828046;77;20947;-60
2021/11/15 07:58:14;;;;;;;38.60;27.07;;;;;;;6.71;85.95;99477.80;1817955;77;21131;-61
2021/11/15 08:00:43;;;;;;;36.58;27.35;;;;;;;6.77;85.51;99482.20;1814916;77;21317;-58
2021/11/15 08:03:10;;;;;;;34.20;26.42;;;;;;;6.81;85.16;99482.02;1817895;78;21383;-57
2021/11/15 08:05:37;;;;;;;33.50;25.68;;;;;;;6.83;84.71;99482.08;1826671;77;21002;-57
2021/11/15 08:08:05;;;;;;;40.25;26.80;;;;;;;6.84;84.47;99482.38;1821023;77;21218;-58
2021/11/15 08:10:32;;;;;;;37.70;27.73;;;;;;;6.79;84.29;99486.25;1811461;78;21043;-58
2021/11/15 08:12:59;;;;;;;30.77;24.55;;;;;;;6.74;83.94;99486.12;1793496;79;21323;-62
2021/11/15 08:15:31;;;;;;;35.30;25.12;;;;;;;6.71;84.02;99479.91;1793804;79;20978;-61
2021/11/15 08:17:59;;;;;;;34.83;25.12;;;;;;;6.71;84.10;99483.13;1794763;80;20840;-60
2021/11/15 08:20:32;;;;;;;35.60;25.65;;;;;;;6.74;84.07;99485.30;1806730;78;20908;-61
2021/11/15 08:23:02;;;;;;;35.33;25.68;;;;;;;6.76;83.65;99482.71;1828835;77;21097;-57
2021/11/15 08:26:29;;;;;;;33.08;25.25;;;;;;;6.80;83.53;99490.55;1825817;78;21838;-58
2021/11/15 08:29:06;;;;;;;36.45;26.23;;;;;;;6.83;83.53;99491.92;1821316;78;20888;-57
2021/11/15 08:31:35;;;;;;;38.98;24.98;;;;;;;6.86;83.30;99494.12;1824822;78;21485;-57
2021/11/15 08:34:01;;;;;;;30.40;24.45;;;;;;;6.89;83.19;99503.82;1824841;78;21006;-56
2021/11/15 08:36:28;;;;;;;30.57;23.67;;;;;;;6.92;83.05;99499.07;1806841;78;21399;-57
2021/11/15 08:38:59;;;;;;;36.53;25.95;;;;;;;6.97;82.88;99503.19;1825098;78;21108;-59
2021/11/15 08:41:31;;;;;;;29.72;22.85;;;;;;;7.02;82.64;99505.98;1824754;78;20907;-60
2021/11/15 08:43:59;;;;;;;33.20;25.10;;;;;;;7.04;82.29;99511.88;1825284;78;21033;-57
2021/11/15 08:46:28;;;;;;;32.15;24.43;;;;;;;6.98;81.54;99504.80;1825061;78;21023;-61
2021/11/15 08:48:55;;;;;;;36.20;25.05;;;;;;;6.88;81.75;99510.69;1825808;77;21074;-58
2021/11/15 08:51:23;;;;;;;35.33;24.20;;;;;;;6.82;81.94;99503.63;1823563;77;21105;-60
2021/11/15 08:53:51;;;;;;;32.65;23.05;;;;;;;6.80;81.80;99513.19;1806833;78;21011;-63
2021/11/15 08:56:19;;;;;;;34.92;25.00;;;;;;;6.75;81.84;99509.06;1816321;78;21544;-59
2021/11/15 08:58:46;;;;;;;30.97;23.50;;;;;;;6.74;81.94;99510.61;1824579;78;20991;-57
2021/11/15 09:01:12;;;;;;;31.10;24.07;;;;;;;6.73;82.02;99516.98;1819719;77;21037;-56
2021/11/15 09:03:41;;;;;;;34.43;24.05;;;;;;;6.75;81.98;99517.56;1840883;77;21484;-60
2021/11/15 09:06:12;;;;;;;32.13;23.95;;;;;;;6.78;82.06;99513.91;1825363;77;20927;-61
2021/11/15 09:08:42;;;;;;;32.50;25.35;;;;;;;6.84;81.97;99518.34;1829487;77;21019;-62
2021/11/15 09:11:10;;;;;;;32.42;23.85;;;;;;;6.89;81.84;99521.64;1825997;78;20993;-61
2021/11/15 09:13:38;;;;;;;33.98;23.62;;;;;;;6.93;81.75;99523.31;1818080;78;20963;-59
2021/11/15 09:16:06;;;;;;;32.83;24.32;;;;;;;7.00;81.58;99522.69;1833893;78;21680;-62
2021/11/15 09:18:34;;;;;;;32.65;24.52;;;;;;;7.04;81.39;99518.55;1836135;77;20907;-59
2021/11/15 09:21:01;;;;;;;31.75;24.37;;;;;;;7.04;81.20;99514.55;1835763;78;21001;-62
2021/11/15 09:23:27;;;;;;;29.35;24.52;;;;;;;7.04;81.22;99513.22;1835753;78;21161;-57
2021/11/15 09:25:54;;;;;;;35.30;25.40;;;;;;;7.07;80.82;99512.22;1821688;78;21436;-56
2021/11/15 09:28:21;;;;;;;33.18;24.98;;;;;;;7.06;80.87;99515.13;1821849;78;21756;-59
2021/11/15 09:30:48;;;;;;;35.33;23.92;;;;;;;7.10;80.72;99521.61;1814555;78;20920;-59
2021/11/15 09:33:14;;;;;;;33.42;24.27;;;;;;;7.13;80.57;99511.83;1802612;78;21052;-58
2021/11/15 09:35:48;;;;;;;32.95;24.52;;;;;;;7.13;80.47;99518.48;1803499;78;20947;-59
2021/11/15 09:38:10;;;;;;;33.90;24.75;;;;;;;7.14;80.38;99512.09;1821239;78;21463;-59
2021/11/15 09:40:36;;;;;;;34.78;25.68;;;;;;;7.14;80.36;99505.44;1821873;78;21103;-61
2021/11/15 09:43:03;;;;;;;37.23;26.33;;;;;;;7.15;80.23;99509.73;1820379;78;21085;-59
2021/11/15 09:45:30;;;;;;;31.90;23.92;;;;;;;7.11;80.14;99506.74;1820805;77;21046;-56
2021/11/15 09:48:00;;;;;;;33.70;25.17;;;;;;;7.09;80.17;99507.47;1820704;78;21427;-58
2021/11/15 09:50:28;;;;;;;30.90;24.47;;;;;;;7.08;80.04;99512.52;1821536;78;21550;-58
2021/11/15 09:52:55;;;;;;;31.20;24.63;;;;;;;7.06;80.10;99514.61;1820456;78;21059;-59
2021/11/15 09:55:22;;;;;;;34.27;25.17;;;;;;;7.03;80.04;99507.59;1820468;78;20876;-58
2021/11/15 09:57:49;;;;;;;36.63;25.50;;;;;;;6.99;80.08;99510.42;1820655;78;20996;-58
2021/11/15 10:00:20;;;;;;;33.78;25.08;;;;;;;7.00;80.14;99514.70;1821618;78;20920;-59
2021/11/15 10:02:51;;;;;;;34.60;25.55;;;;;;;7.03;80.14;99521.72;1822407;78;20971;-60
2021/11/15 10:05:18;;;;;;;33.95;24.45;;;;;;;7.07;80.05;99516.73;1812090;78;21762;-56
2021/11/15 10:07:49;;;;;;;35.40;25.00;;;;;;;7.09;79.80;99524.00;1789401;80;20959;-61
2021/11/15 10:10:48;;;;;;;40.48;27.20;;;;;;;7.09;79.66;99526.66;1814092;78;20892;-59
2021/11/15 10:13:34;;;;;;;34.65;25.48;;;;;;;7.07;79.70;99524.72;1805748;77;21523;-59
2021/11/15 10:16:33;;;;;;;36.50;25.72;;;;;;;7.04;79.53;99521.20;1791669;78;20869;-58
2021/11/15 10:19:15;;;;;;;40.95;25.30;;;;;;;7.02;79.65;99516.64;1782790;79;21018;-61
2021/11/15 10:21:54;;;;;;;44.70;26.57;;;;;;;7.03;79.69;99520.39;1789383;80;20836;-58
2021/11/15 10:24:32;;;;;;;41.58;26.45;;;;;;;7.06;79.68;99516.45;1792483;78;21613;-59
2021/11/15 10:27:06;;;;;;;35.48;25.92;;;;;;;7.11;79.60;99524.58;1805079;78;20978;-59
2021/11/15 10:29:39;;;;;;;40.05;25.20;;;;;;;7.15;79.59;99517.73;1806421;78;20872;-61
2021/11/15 10:32:11;;;;;;;32.70;25.35;;;;;;;7.17;79.44;99526.30;1819490;78;21723;-57
2021/11/15 10:37:29;;;;;;;40.05;25.72;;;;;;;7.10;79.37;99521.61;1810227;78;25538;-59
2021/11/15 10:40:08;;;;;;;32.75;25.43;;;;;;;7.09;79.36;99533.32;1797821;78;20960;-58
2021/11/15 10:42:45;;;;;;;38.20;26.20;;;;;;;7.08;79.38;99529.02;1809070;78;20967;-58
2021/11/15 10:45:21;;;;;;;37.35;27.05;;;;;;;7.08;79.39;99531.69;1821369;78;21140;-56
2021/11/15 10:47:57;;;;;;;35.30;25.43;;;;;;;7.09;79.46;99526.66;1819807;78;21063;-57
2021/11/15 10:50:48;;;;;;;34.78;25.02;;;;;;;7.12;79.42;99540.32;1820808;78;20955;-58
2021/11/15 10:53:23;;;;;;;37.85;26.05;;;;;;;7.13;79.41;99537.14;1814756;78;20903;-60
2021/11/15 10:56:13;;;;;;;35.10;25.52;;;;;;;7.11;79.40;99537.38;1795784;77;21030;-61
2021/11/15 10:58:42;;;;;;;38.50;26.00;;;;;;;7.06;79.37;99543.09;1810128;78;21095;-62
2021/11/15 11:01:10;;;;;;;34.08;25.68;;;;;;;7.02;79.52;99543.28;1812319;78;20955;-61
2021/11/15 11:03:37;;;;;;;35.48;26.62;;;;;;;7.00;79.64;99541.34;1820406;78;20963;-60
2021/11/15 11:06:08;;;;;;;36.15;27.00;;;;;;;7.01;79.71;99538.98;1793332;78;21470;-59
2021/11/15 11:08:48;;;;;;;36.93;24.98;;;;;;;7.02;79.74;99541.40;1788470;80;21498;-57
2021/11/15 11:11:27;;;;;;;33.70;24.18;;;;;;;7.04;79.66;99542.52;1788919;80;21097;-61
2021/11/15 11:14:04;;;;;;;39.50;26.52;;;;;;;7.05;79.53;99538.80;1798672;78;20968;-60
2021/11/15 11:16:43;;;;;;;;;;;;;;;7.02;79.63;99541.95;1807550;78;20905;-57
2021/11/15 11:19:18;;;;;;;38.33;27.50;;;;;;;6.98;79.48;99550.08;1803556;77;20091;-60
2021/11/15 11:24:57;;;;;;;37.93;27.82;;;;;;;6.95;79.88;99545.23;1814067;78;21311;-58
2021/11/15 11:27:16;;;;;;;42.15;30.20;;;;;;;7.00;79.85;99547.48;1818737;78;21094;-60
2021/11/15 11:29:48;;;;;;;38.02;26.12;;;;;;;7.03;79.79;99550.21;1821416;78;21360;-58
2021/11/15 11:32:20;;;;;;;37.63;27.27;;;;;;;7.07;79.71;99558.03;1799972;78;21463;-58
2021/11/15 11:34:48;;;;;;;37.75;26.52;;;;;;;7.08;79.67;99560.48;1795686;78;20924;-55
2021/11/15 11:37:16;;;;;;;36.48;28.05;;;;;;;7.13;79.73;99560.61;1801918;78;21113;-60
2021/11/15 11:39:45;;;;;;;34.75;25.48;;;;;;;7.17;79.55;99562.28;1799035;78;21047;-60
2021/11/15 11:42:14;;;;;;;34.92;26.12;;;;;;;7.19;79.41;99561.01;1788919;80;20994;-59
2021/11/15 11:44:41;;;;;;;35.35;26.95;;;;;;;7.19;79.34;99565.52;1797084;78;20924;-60
2021/11/15 11:47:12;;;;;;;37.23;25.02;;;;;;;7.11;78.95;99557.88;1789424;80;20990;-58
2021/11/15 11:49:41;;;;;;;39.55;25.68;;;;;;;6.99;79.25;99562.38;1804486;78;21081;-60
2021/11/15 11:52:10;;;;;;;36.05;27.10;;;;;;;6.97;79.43;99553.80;1793045;78;21447;-59
2021/11/15 11:54:41;;;;;;;38.63;26.82;;;;;;;6.96;79.42;99554.83;1810292;78;20983;-60
2021/11/15 11:57:21;;;;;;;36.38;27.00;;;;;;;6.86;79.48;99550.87;1790297;78;21035;-59
2021/11/15 11:59:53;;;;;;;38.58;25.90;;;;;;;6.85;79.64;99549.24;1788054;80;21126;-61
2021/11/15 12:02:22;;;;;;;36.65;27.62;;;;;;;6.83;79.73;99551.84;1787413;80;21091;-57
2021/11/15 12:05:15;;;;;;;36.80;27.62;;;;;;;6.80;79.84;99551.80;1787799;80;21351;-62
2021/11/15 12:08:00;;;;;;;45.00;28.30;;;;;;;6.77;79.88;99554.91;1807550;78;20868;-60
2021/11/15 12:10:48;;;;;;;36.05;25.80;;;;;;;6.69;79.97;99555.23;1811237;78;21454;-58
2021/11/15 12:13:16;;;;;;;38.70;27.25;;;;;;;6.67;80.25;99554.65;1811010;78;21094;-59
2021/11/15 12:16:01;;;;;;;42.53;28.38;;;;;;;6.72;80.36;99556.63;1814546;78;22067;-56
2021/11/15 12:18:33;;;;;;;34.53;27.37;;;;;;;6.77;80.47;99562.09;1816594;78;21616;-56
2021/11/15 12:21:08;;;;;;;37.38;27.90;;;;;;;6.81;80.41;99560.58;1819314;78;20942;-61
2021/11/15 12:23:54;;;;;;;43.52;28.00;;;;;;;6.80;80.23;99555.80;1818997;78;21509;-57
2021/11/15 12:26:28;;;;;;;41.85;28.30;;;;;;;6.79;80.21;99552.83;1818973;78;21030;-61
2021/11/15 12:28:59;;;;;;;47.98;31.65;;;;;;;6.77;80.20;99562.91;1816658;78;21700;-62
2021/11/15 12:31:47;;;;;;;42.98;29.30;;;;;;;6.77;80.27;99568.23;1819072;78;21041;-56
2021/11/15 12:34:15;;;;;;;43.83;29.37;;;;;;;6.78;80.34;99563.18;1819336;78;21647;-61
2021/11/15 12:36:45;;;;;;;45.90;32.38;;;;;;;6.79;80.24;99564.81;1819367;78;21065;-60
2021/11/15 12:39:18;;;;;;;44.40;30.95;;;;;;;6.76;80.40;99565.27;1819924;78;20966;-60
2021/11/15 12:41:52;;;;;;;47.90;30.52;;;;;;;6.77;80.38;99562.91;1819282;78;21481;-59
2021/11/15 12:44:29;;;;;;;41.42;30.52;;;;;;;6.79;80.40;99556.83;1823892;78;20992;-62
2021/11/15 12:47:00;;;;;;;45.15;30.17;;;;;;;6.80;80.31;99559.80;1822775;78;21412;-59
2021/11/15 12:49:41;;;;;;;39.85;28.15;;;;;;;6.80;80.29;99557.13;1820819;78;21579;-57
2021/11/15 12:52:14;;;;;;;40.33;27.52;;;;;;;6.76;80.16;99565.27;1818271;78;20955;-58
2021/11/15 12:55:05;;;;;;;36.68;27.50;;;;;;;6.71;80.35;99565.13;1795057;80;21070;-60
2021/11/15 12:57:45;;;;;;;42.10;29.18;;;;;;;6.72;80.46;99562.77;1807257;78;21004;-61
2021/11/15 13:00:20;;;;;;;40.85;28.80;;;;;;;6.76;80.52;99566.59;1825218;78;21581;-58
2021/11/15 13:02:57;;;;;;;42.70;29.23;;;;;;;6.78;80.44;99566.39;1805711;78;21439;-59
2021/11/15 13:05:26;;;;;;;44.65;30.15;;;;;;;6.77;80.42;99564.75;1823592;78;20836;-61
2021/11/15 13:08:00;;;;;;;40.10;28.27;;;;;;;6.72;80.44;99564.10;1821542;78;21921;-60
